sensor_id;sensor_type;location;lat;lon;timestamp;temperature;humidity
75363;DHT22;64122;51.988;5.892;2022-12-31T08:47:16;12.08;89.03
75363;DHT22;64122;51.988;5.892;2022-12-31T08:49:49;12.37;89.53
75363;DHT22;64122;51.988;5.892;2022-12-31T08:52:24;12.67;89.14
75363;DHT22;64122;51.988;5.892;2022-12-31T08:54:54;12.96;88.49
75363;DHT22;64122;51.988;5.892;2022-12-31T08:57:29;13.23;87.78
75363;DHT22;64122;51.988;5.892;2022-12-31T09:00:04;13.41;87.12
75363;DHT22;64122;51.988;5.892;2022-12-31T09:03:00;13.62;86.67
75363;DHT22;64122;51.988;5.892;2022-12-31T09:05:35;13.79;85.93
75363;DHT22;64122;51.988;5.892;2022-12-31T09:08:19;13.90;85.51
75363;DHT22;64122;51.988;5.892;2022-12-31T09:10:55;13.98;85.01
75363;DHT22;64122;51.988;5.892;2022-12-31T09:13:33;14.11;84.58
75363;DHT22;64122;51.988;5.892;2022-12-31T09:16:12;14.19;84.03
75363;DHT22;64122;51.988;5.892;2022-12-31T09:18:47;14.17;84.64
75363;DHT22;64122;51.988;5.892;2022-12-31T09:21:18;14.32;83.55
75363;DHT22;64122;51.988;5.892;2022-12-31T09:23:47;14.37;83.13
75363;DHT22;64122;51.988;5.892;2022-12-31T09:26:30;14.42;83.14
75363;DHT22;64122;51.988;5.892;2022-12-31T09:29:11;14.50;82.68
75363;DHT22;64122;51.988;5.892;2022-12-31T09:31:50;14.57;82.50
75363;DHT22;64122;51.988;5.892;2022-12-31T09:34:28;14.66;82.23
75363;DHT22;64122;51.988;5.892;2022-12-31T09:37:06;14.74;81.81
75363;DHT22;64122;51.988;5.892;2022-12-31T09:39:40;14.80;81.61
75363;DHT22;64122;51.988;5.892;2022-12-31T09:42:52;14.83;81.78
75363;DHT22;64122;51.988;5.892;2022-12-31T09:45:45;14.93;81.49
75363;DHT22;64122;51.988;5.892;2022-12-31T09:51:30;15.11;80.62
75363;DHT22;64122;51.988;5.892;2022-12-31T09:54:13;15.21;80.48
75363;DHT22;64122;51.988;5.892;2022-12-31T09:56:54;15.30;79.88
75363;DHT22;64122;51.988;5.892;2022-12-31T09:59:29;15.39;79.37
75363;DHT22;64122;51.988;5.892;2022-12-31T10:02:15;15.45;79.49
75363;DHT22;64122;51.988;5.892;2022-12-31T10:04:58;15.49;79.25
75363;DHT22;64122;51.988;5.892;2022-12-31T10:07:43;15.51;79.24
75363;DHT22;64122;51.988;5.892;2022-12-31T10:10:18;15.53;78.95
75363;DHT22;64122;51.988;5.892;2022-12-31T10:16:04;15.58;78.99
75363;DHT22;64122;51.988;5.892;2022-12-31T10:18:53;15.63;78.93
75363;DHT22;64122;51.988;5.892;2022-12-31T10:21:42;15.70;78.64
75363;DHT22;64122;51.988;5.892;2022-12-31T10:27:24;15.85;78.01
75363;DHT22;64122;51.988;5.892;2022-12-31T10:29:58;15.98;77.53
75363;DHT22;64122;51.988;5.892;2022-12-31T10:32:37;16.04;77.47
75363;DHT22;64122;51.988;5.892;2022-12-31T10:35:25;16.07;77.36
75363;DHT22;64122;51.988;5.892;2022-12-31T10:38:05;16.17;76.98
75363;DHT22;64122;51.988;5.892;2022-12-31T10:41:08;16.20;76.98
75363;DHT22;64122;51.988;5.892;2022-12-31T10:44:04;16.22;76.85
75363;DHT22;64122;51.988;5.892;2022-12-31T10:47:08;16.19;76.67
75363;DHT22;64122;51.988;5.892;2022-12-31T10:50:03;16.20;76.61
75363;DHT22;64122;51.988;5.892;2022-12-31T10:53:13;16.24;76.63
75363;DHT22;64122;51.988;5.892;2022-12-31T10:55:59;16.30;76.44
75363;DHT22;64122;51.988;5.892;2022-12-31T10:59:00;16.32;76.26
75363;DHT22;64122;51.988;5.892;2022-12-31T11:01:46;16.41;76.12
75363;DHT22;64122;51.988;5.892;2022-12-31T11:04:45;16.39;76.21
75363;DHT22;64122;51.988;5.892;2022-12-31T11:07:31;16.44;75.99
75363;DHT22;64122;51.988;5.892;2022-12-31T11:10:34;16.43;76.06
75363;DHT22;64122;51.988;5.892;2022-12-31T11:16:30;16.41;75.88
75363;DHT22;64122;51.988;5.892;2022-12-31T11:19:08;16.41;75.61
75363;DHT22;64122;51.988;5.892;2022-12-31T11:21:51;16.43;75.65
75363;DHT22;64122;51.988;5.892;2022-12-31T11:24:33;16.41;75.57
75363;DHT22;64122;51.988;5.892;2022-12-31T11:27:15;16.40;75.49
75363;DHT22;64122;51.988;5.892;2022-12-31T11:29:58;16.40;75.54
75363;DHT22;64122;51.988;5.892;2022-12-31T11:32:40;16.42;75.47
75363;DHT22;64122;51.988;5.892;2022-12-31T11:38:13;16.49;75.31
75363;DHT22;64122;51.988;5.892;2022-12-31T11:40:49;16.52;74.96
75363;DHT22;64122;51.988;5.892;2022-12-31T11:43:31;16.56;74.75
75363;DHT22;64122;51.988;5.892;2022-12-31T11:46:19;16.56;74.61
75363;DHT22;64122;51.988;5.892;2022-12-31T11:49:01;16.58;74.08
75363;DHT22;64122;51.988;5.892;2022-12-31T11:51:50;16.63;74.01
75363;DHT22;64122;51.988;5.892;2022-12-31T11:57:47;16.73;73.35
75363;DHT22;64122;51.988;5.892;2022-12-31T12:00:19;16.77;72.94
75363;DHT22;64122;51.988;5.892;2022-12-31T12:02:50;16.78;72.66
75363;DHT22;64122;51.988;5.892;2022-12-31T12:05:23;16.79;72.20
75363;DHT22;64122;51.988;5.892;2022-12-31T12:07:53;16.81;71.77
75363;DHT22;64122;51.988;5.892;2022-12-31T12:10:25;16.85;71.77
75363;DHT22;64122;51.988;5.892;2022-12-31T12:12:57;16.84;71.55
75363;DHT22;64122;51.988;5.892;2022-12-31T12:15:30;16.86;71.19
75363;DHT22;64122;51.988;5.892;2022-12-31T12:18:07;16.89;70.98
75363;DHT22;64122;51.988;5.892;2022-12-31T12:20:37;16.92;70.83
75363;DHT22;64122;51.988;5.892;2022-12-31T12:23:14;16.94;70.84
75363;DHT22;64122;51.988;5.892;2022-12-31T12:25:44;16.93;70.53
75363;DHT22;64122;51.988;5.892;2022-12-31T12:28:22;16.91;70.84
75363;DHT22;64122;51.988;5.892;2022-12-31T12:30:57;16.89;70.89
75363;DHT22;64122;51.988;5.892;2022-12-31T12:33:28;16.87;71.24
75363;DHT22;64122;51.988;5.892;2022-12-31T12:36:09;16.84;71.58
75363;DHT22;64122;51.988;5.892;2022-12-31T12:38:39;16.85;71.71
75363;DHT22;64122;51.988;5.892;2022-12-31T12:41:11;16.81;71.82
75363;DHT22;64122;51.988;5.892;2022-12-31T12:43:43;16.75;71.96
75363;DHT22;64122;51.988;5.892;2022-12-31T12:46:19;16.69;72.08
75363;DHT22;64122;51.988;5.892;2022-12-31T12:48:54;16.62;72.30
75363;DHT22;64122;51.988;5.892;2022-12-31T12:51:32;16.62;72.32
75363;DHT22;64122;51.988;5.892;2022-12-31T12:54:15;16.59;72.38
75363;DHT22;64122;51.988;5.892;2022-12-31T12:56:51;16.57;72.13
75363;DHT22;64122;51.988;5.892;2022-12-31T12:59:38;16.55;72.25
75363;DHT22;64122;51.988;5.892;2022-12-31T13:02:25;16.54;72.27
75363;DHT22;64122;51.988;5.892;2022-12-31T13:05:16;16.51;72.40
75363;DHT22;64122;51.988;5.892;2022-12-31T13:07:53;16.51;72.24
75363;DHT22;64122;51.988;5.892;2022-12-31T13:10:37;16.49;72.27
75363;DHT22;64122;51.988;5.892;2022-12-31T13:13:19;16.52;72.29
75363;DHT22;64122;51.988;5.892;2022-12-31T13:15:58;16.56;72.16
75363;DHT22;64122;51.988;5.892;2022-12-31T13:18:41;16.56;72.00
75363;DHT22;64122;51.988;5.892;2022-12-31T13:24:20;16.60;71.81
75363;DHT22;64122;51.988;5.892;2022-12-31T13:26:54;16.63;71.58
75363;DHT22;64122;51.988;5.892;2022-12-31T13:29:28;16.65;71.50
75363;DHT22;64122;51.988;5.892;2022-12-31T13:32:03;16.70;71.46
75363;DHT22;64122;51.988;5.892;2022-12-31T13:34:38;16.72;71.36
75363;DHT22;64122;51.988;5.892;2022-12-31T13:37:18;16.71;71.40
75363;DHT22;64122;51.988;5.892;2022-12-31T13:39:54;16.70;71.40
75363;DHT22;64122;51.988;5.892;2022-12-31T13:42:28;16.70;71.48
75363;DHT22;64122;51.988;5.892;2022-12-31T13:45:01;16.65;71.32
75363;DHT22;64122;51.988;5.892;2022-12-31T13:47:38;16.63;71.54
75363;DHT22;64122;51.988;5.892;2022-12-31T13:50:16;16.59;71.58
75363;DHT22;64122;51.988;5.892;2022-12-31T13:52:52;16.59;71.70
75363;DHT22;64122;51.988;5.892;2022-12-31T13:55:24;16.58;71.83
75363;DHT22;64122;51.988;5.892;2022-12-31T13:57:59;16.57;71.92
75363;DHT22;64122;51.988;5.892;2022-12-31T14:00:34;16.58;71.96
75363;DHT22;64122;51.988;5.892;2022-12-31T14:03:11;16.57;72.01
75363;DHT22;64122;51.988;5.892;2022-12-31T14:05:48;16.54;71.91
75363;DHT22;64122;51.988;5.892;2022-12-31T14:08:19;16.59;71.64
75363;DHT22;64122;51.988;5.892;2022-12-31T14:10:57;16.59;71.68
75363;DHT22;64122;51.988;5.892;2022-12-31T14:13:36;16.62;71.56
75363;DHT22;64122;51.988;5.892;2022-12-31T14:16:15;16.63;71.50
75363;DHT22;64122;51.988;5.892;2022-12-31T14:18:58;16.63;71.51
75363;DHT22;64122;51.988;5.892;2022-12-31T14:21:36;16.61;71.16
75363;DHT22;64122;51.988;5.892;2022-12-31T14:24:12;16.62;71.05
75363;DHT22;64122;51.988;5.892;2022-12-31T14:26:44;16.65;70.71
75363;DHT22;64122;51.988;5.892;2022-12-31T14:29:24;16.65;70.43
75363;DHT22;64122;51.988;5.892;2022-12-31T14:32:20;16.69;70.36
75363;DHT22;64122;51.988;5.892;2022-12-31T14:35:04;16.69;69.86
75363;DHT22;64122;51.988;5.892;2022-12-31T14:37:48;16.71;69.34
75363;DHT22;64122;51.988;5.892;2022-12-31T14:40:29;16.70;69.04
75363;DHT22;64122;51.988;5.892;2022-12-31T14:43:18;16.72;68.71
75363;DHT22;64122;51.988;5.892;2022-12-31T14:45:59;16.74;68.52
75363;DHT22;64122;51.988;5.892;2022-12-31T14:48:39;16.74;68.12
75363;DHT22;64122;51.988;5.892;2022-12-31T14:51:16;16.75;68.01
75363;DHT22;64122;51.988;5.892;2022-12-31T14:53:50;16.76;67.84
75363;DHT22;64122;51.988;5.892;2022-12-31T14:56:30;16.77;67.88
75363;DHT22;64122;51.988;5.892;2022-12-31T14:59:01;16.77;67.29
75363;DHT22;64122;51.988;5.892;2022-12-31T15:01:30;16.79;67.07
75363;DHT22;64122;51.988;5.892;2022-12-31T15:04:01;16.76;66.83
75363;DHT22;64122;51.988;5.892;2022-12-31T15:06:53;16.76;66.96
75363;DHT22;64122;51.988;5.892;2022-12-31T15:09:41;16.76;66.85
75363;DHT22;64122;51.988;5.892;2022-12-31T15:12:24;16.78;66.56
75363;DHT22;64122;51.988;5.892;2022-12-31T15:18:25;16.74;66.72
75363;DHT22;64122;51.988;5.892;2022-12-31T15:23:58;16.76;66.09
75363;DHT22;64122;51.988;5.892;2022-12-31T15:26:29;16.76;65.73
75363;DHT22;64122;51.988;5.892;2022-12-31T15:29:01;16.75;65.82
75363;DHT22;64122;51.988;5.892;2022-12-31T15:31:33;16.75;65.66
75363;DHT22;64122;51.988;5.892;2022-12-31T15:34:05;16.73;65.06
75363;DHT22;64122;51.988;5.892;2022-12-31T15:36:35;16.76;64.98
75363;DHT22;64122;51.988;5.892;2022-12-31T15:39:26;16.76;65.39
75363;DHT22;64122;51.988;5.892;2022-12-31T15:42:39;16.76;65.05
75363;DHT22;64122;51.988;5.892;2022-12-31T15:45:15;16.78;64.51
75363;DHT22;64122;51.988;5.892;2022-12-31T15:47:49;16.82;64.53
75363;DHT22;64122;51.988;5.892;2022-12-31T15:50:22;16.81;64.24
75363;DHT22;64122;51.988;5.892;2022-12-31T15:52:53;16.82;64.17
75363;DHT22;64122;51.988;5.892;2022-12-31T15:55:29;16.84;64.27
75363;DHT22;64122;51.988;5.892;2022-12-31T15:58:03;16.74;65.38
75363;DHT22;64122;51.988;5.892;2022-12-31T16:00:42;16.81;64.28
75363;DHT22;64122;51.988;5.892;2022-12-31T16:03:20;16.84;63.98
75363;DHT22;64122;51.988;5.892;2022-12-31T16:05:50;16.82;63.74
75363;DHT22;64122;51.988;5.892;2022-12-31T16:08:21;16.84;63.82
75363;DHT22;64122;51.988;5.892;2022-12-31T16:10:55;16.74;64.75
75363;DHT22;64122;51.988;5.892;2022-12-31T16:13:26;16.81;64.08
75363;DHT22;64122;51.988;5.892;2022-12-31T16:16:00;16.82;63.98
75363;DHT22;64122;51.988;5.892;2022-12-31T16:18:37;16.81;63.87
75363;DHT22;64122;51.988;5.892;2022-12-31T16:21:26;16.82;64.05
75363;DHT22;64122;51.988;5.892;2022-12-31T16:23:59;16.84;63.58
75363;DHT22;64122;51.988;5.892;2022-12-31T16:26:35;16.84;63.64
75363;DHT22;64122;51.988;5.892;2022-12-31T16:29:12;16.86;63.63
75363;DHT22;64122;51.988;5.892;2022-12-31T16:31:42;16.84;63.41
75363;DHT22;64122;51.988;5.892;2022-12-31T16:34:14;16.80;63.30
75363;DHT22;64122;51.988;5.892;2022-12-31T16:36:54;16.78;63.73
75363;DHT22;64122;51.988;5.892;2022-12-31T16:39:26;16.77;63.40
75363;DHT22;64122;51.988;5.892;2022-12-31T16:42:16;16.62;64.42
75363;DHT22;64122;51.988;5.892;2022-12-31T16:44:47;16.66;63.47
75363;DHT22;64122;51.988;5.892;2022-12-31T16:47:19;16.66;63.17
75363;DHT22;64122;51.988;5.892;2022-12-31T16:49:51;16.65;62.95
75363;DHT22;64122;51.988;5.892;2022-12-31T16:52:29;16.65;62.99
75363;DHT22;64122;51.988;5.892;2022-12-31T16:55:00;16.66;62.60
75363;DHT22;64122;51.988;5.892;2022-12-31T16:57:32;16.65;62.47
75363;DHT22;64122;51.988;5.892;2022-12-31T17:00:04;16.63;62.37
75363;DHT22;64122;51.988;5.892;2022-12-31T17:02:38;16.64;62.20
75363;DHT22;64122;51.988;5.892;2022-12-31T17:05:17;16.61;62.36
75363;DHT22;64122;51.988;5.892;2022-12-31T17:07:47;16.63;62.47
75363;DHT22;64122;51.988;5.892;2022-12-31T17:10:22;16.57;62.44
75363;DHT22;64122;51.988;5.892;2022-12-31T17:12:57;16.56;62.56
75363;DHT22;64122;51.988;5.892;2022-12-31T17:15:28;16.54;62.29
75363;DHT22;64122;51.988;5.892;2022-12-31T17:18:00;16.50;62.50
75363;DHT22;64122;51.988;5.892;2022-12-31T17:20:31;16.47;62.44
75363;DHT22;64122;51.988;5.892;2022-12-31T17:23:04;16.45;62.56
75363;DHT22;64122;51.988;5.892;2022-12-31T17:25:36;16.44;62.55
75363;DHT22;64122;51.988;5.892;2022-12-31T17:28:20;16.36;63.11
75363;DHT22;64122;51.988;5.892;2022-12-31T17:30:50;16.36;62.97
75363;DHT22;64122;51.988;5.892;2022-12-31T17:33:29;16.30;63.04
75363;DHT22;64122;51.988;5.892;2022-12-31T17:36:19;16.27;63.08
75363;DHT22;64122;51.988;5.892;2022-12-31T17:38:48;16.27;62.92
75363;DHT22;64122;51.988;5.892;2022-12-31T17:41:23;16.25;62.95
75363;DHT22;64122;51.988;5.892;2022-12-31T17:43:56;16.24;62.70
75363;DHT22;64122;51.988;5.892;2022-12-31T17:46:25;16.24;62.79
75363;DHT22;64122;51.988;5.892;2022-12-31T17:48:56;16.19;62.67
75363;DHT22;64122;51.988;5.892;2022-12-31T17:51:27;16.17;62.70
75363;DHT22;64122;51.988;5.892;2022-12-31T17:53:58;16.14;62.59
75363;DHT22;64122;51.988;5.892;2022-12-31T17:56:28;16.12;62.86
75363;DHT22;64122;51.988;5.892;2022-12-31T17:59:03;16.07;62.79
75363;DHT22;64122;51.988;5.892;2022-12-31T18:01:32;16.10;62.55
75363;DHT22;64122;51.988;5.892;2022-12-31T18:04:02;16.07;62.43
75363;DHT22;64122;51.988;5.892;2022-12-31T18:06:31;16.07;62.50
75363;DHT22;64122;51.988;5.892;2022-12-31T18:09:00;16.08;62.34
75363;DHT22;64122;51.988;5.892;2022-12-31T18:11:29;16.10;62.17
75363;DHT22;64122;51.988;5.892;2022-12-31T18:14:01;16.12;61.83
75363;DHT22;64122;51.988;5.892;2022-12-31T18:16:32;16.18;61.80
75363;DHT22;64122;51.988;5.892;2022-12-31T18:19:01;16.22;61.61
75363;DHT22;64122;51.988;5.892;2022-12-31T18:21:32;16.25;61.16
75363;DHT22;64122;51.988;5.892;2022-12-31T18:24:02;16.28;61.12
75363;DHT22;64122;51.988;5.892;2022-12-31T18:26:32;16.31;60.95
75363;DHT22;64122;51.988;5.892;2022-12-31T18:29:12;16.32;61.11
75363;DHT22;64122;51.988;5.892;2022-12-31T18:31:44;16.34;60.90
75363;DHT22;64122;51.988;5.892;2022-12-31T18:34:15;16.34;60.54
75363;DHT22;64122;51.988;5.892;2022-12-31T18:36:45;16.36;60.39
75363;DHT22;64122;51.988;5.892;2022-12-31T18:39:14;16.36;60.16
75363;DHT22;64122;51.988;5.892;2022-12-31T18:41:46;16.36;59.97
75363;DHT22;64122;51.988;5.892;2022-12-31T18:44:18;16.36;59.92
75363;DHT22;64122;51.988;5.892;2022-12-31T18:46:47;16.36;59.64
75363;DHT22;64122;51.988;5.892;2022-12-31T18:49:16;16.34;59.66
75363;DHT22;64122;51.988;5.892;2022-12-31T18:51:45;16.32;59.20
75363;DHT22;64122;51.988;5.892;2022-12-31T18:54:19;16.30;59.05
75363;DHT22;64122;51.988;5.892;2022-12-31T18:56:48;16.29;59.19
75363;DHT22;64122;51.988;5.892;2022-12-31T18:59:20;16.26;59.05
75363;DHT22;64122;51.988;5.892;2022-12-31T19:01:49;16.25;58.96
75363;DHT22;64122;51.988;5.892;2022-12-31T19:04:19;16.22;58.53
75363;DHT22;64122;51.988;5.892;2022-12-31T19:06:48;16.22;58.52
75363;DHT22;64122;51.988;5.892;2022-12-31T19:09:17;16.20;58.23
75363;DHT22;64122;51.988;5.892;2022-12-31T19:11:47;16.21;58.22
75363;DHT22;64122;51.988;5.892;2022-12-31T19:14:17;16.19;57.96
75363;DHT22;64122;51.988;5.892;2022-12-31T19:16:53;16.22;57.74
75363;DHT22;64122;51.988;5.892;2022-12-31T19:19:23;16.24;57.74
75363;DHT22;64122;51.988;5.892;2022-12-31T19:21:53;16.25;57.39
75363;DHT22;64122;51.988;5.892;2022-12-31T19:24:24;16.25;57.37
75363;DHT22;64122;51.988;5.892;2022-12-31T19:26:54;16.26;57.23
75363;DHT22;64122;51.988;5.892;2022-12-31T19:29:24;16.28;56.93
75363;DHT22;64122;51.988;5.892;2022-12-31T19:31:57;16.27;56.79
75363;DHT22;64122;51.988;5.892;2022-12-31T19:34:27;16.31;56.87
75363;DHT22;64122;51.988;5.892;2022-12-31T19:36:56;16.30;56.51
75363;DHT22;64122;51.988;5.892;2022-12-31T19:39:25;16.31;56.47
75363;DHT22;64122;51.988;5.892;2022-12-31T19:41:55;16.31;56.43
75363;DHT22;64122;51.988;5.892;2022-12-31T19:44:24;16.30;56.29
75363;DHT22;64122;51.988;5.892;2022-12-31T19:46:56;16.27;56.59
75363;DHT22;64122;51.988;5.892;2022-12-31T19:49:25;16.20;56.45
75363;DHT22;64122;51.988;5.892;2022-12-31T19:51:54;16.15;56.61
75363;DHT22;64122;51.988;5.892;2022-12-31T19:54:23;16.10;56.57
75363;DHT22;64122;51.988;5.892;2022-12-31T19:56:52;16.07;56.63
75363;DHT22;64122;51.988;5.892;2022-12-31T19:59:21;16.03;56.69
75363;DHT22;64122;51.988;5.892;2022-12-31T20:01:51;15.99;56.64
75363;DHT22;64122;51.988;5.892;2022-12-31T20:04:23;15.92;56.71
75363;DHT22;64122;51.988;5.892;2022-12-31T20:06:52;15.91;56.52
75363;DHT22;64122;51.988;5.892;2022-12-31T20:09:22;15.90;56.50
75363;DHT22;64122;51.988;5.892;2022-12-31T20:11:51;15.87;56.53
75363;DHT22;64122;51.988;5.892;2022-12-31T20:14:20;15.83;56.32
75363;DHT22;64122;51.988;5.892;2022-12-31T20:16:49;15.85;56.37
75363;DHT22;64122;51.988;5.892;2022-12-31T20:19:19;15.83;56.28
75363;DHT22;64122;51.988;5.892;2022-12-31T20:21:50;15.81;56.23
75363;DHT22;64122;51.988;5.892;2022-12-31T20:24:20;15.84;56.26
75363;DHT22;64122;51.988;5.892;2022-12-31T20:26:49;15.84;56.03
75363;DHT22;64122;51.988;5.892;2022-12-31T20:29:18;15.85;56.10
75363;DHT22;64122;51.988;5.892;2022-12-31T20:31:47;15.84;56.23
75363;DHT22;64122;51.988;5.892;2022-12-31T20:34:17;15.86;55.94
75363;DHT22;64122;51.988;5.892;2022-12-31T20:36:46;15.88;55.84
75363;DHT22;64122;51.988;5.892;2022-12-31T20:39:18;15.92;55.70
75363;DHT22;64122;51.988;5.892;2022-12-31T20:41:47;15.98;55.53
75363;DHT22;64122;51.988;5.892;2022-12-31T20:44:16;16.00;55.36
75363;DHT22;64122;51.988;5.892;2022-12-31T20:46:45;16.00;55.26
75363;DHT22;64122;51.988;5.892;2022-12-31T20:49:14;16.00;55.00
75363;DHT22;64122;51.988;5.892;2022-12-31T20:51:44;16.03;54.97
75363;DHT22;64122;51.988;5.892;2022-12-31T20:54:13;16.01;54.85
75363;DHT22;64122;51.988;5.892;2022-12-31T20:56:45;15.96;54.90
75363;DHT22;64122;51.988;5.892;2022-12-31T20:59:14;15.97;54.96
75363;DHT22;64122;51.988;5.892;2022-12-31T21:01:43;15.96;54.84
75363;DHT22;64122;51.988;5.892;2022-12-31T21:04:12;15.98;54.87
75363;DHT22;64122;51.988;5.892;2022-12-31T21:06:42;15.96;54.80
75363;DHT22;64122;51.988;5.892;2022-12-31T21:09:12;15.92;54.79
75363;DHT22;64122;51.988;5.892;2022-12-31T21:11:43;15.90;54.75
75363;DHT22;64122;51.988;5.892;2022-12-31T21:14:25;15.91;54.77
75363;DHT22;64122;51.988;5.892;2022-12-31T21:16:54;15.92;54.78
75363;DHT22;64122;51.988;5.892;2022-12-31T21:19:24;15.95;54.59
75363;DHT22;64122;51.988;5.892;2022-12-31T21:21:53;15.96;54.52
75363;DHT22;64122;51.988;5.892;2022-12-31T21:24:22;15.98;54.55
75363;DHT22;64122;51.988;5.892;2022-12-31T21:26:56;15.97;54.49
75363;DHT22;64122;51.988;5.892;2022-12-31T21:29:25;16.01;54.46
75363;DHT22;64122;51.988;5.892;2022-12-31T21:31:54;16.02;54.10
75363;DHT22;64122;51.988;5.892;2022-12-31T21:34:23;16.05;54.07
75363;DHT22;64122;51.988;5.892;2022-12-31T21:36:53;16.07;53.91
75363;DHT22;64122;51.988;5.892;2022-12-31T21:39:22;16.13;53.65
75363;DHT22;64122;51.988;5.892;2022-12-31T21:41:51;16.22;53.51
75363;DHT22;64122;51.988;5.892;2022-12-31T21:44:24;16.30;53.29
75363;DHT22;64122;51.988;5.892;2022-12-31T21:46:55;16.40;53.28
75363;DHT22;64122;51.988;5.892;2022-12-31T21:49:44;16.45;53.03
75363;DHT22;64122;51.988;5.892;2022-12-31T21:52:15;16.49;52.71
75363;DHT22;64122;51.988;5.892;2022-12-31T21:55:00;16.52;52.64
75363;DHT22;64122;51.988;5.892;2022-12-31T21:57:43;16.57;52.69
75363;DHT22;64122;51.988;5.892;2022-12-31T22:00:16;16.59;52.78
75363;DHT22;64122;51.988;5.892;2022-12-31T22:02:58;16.62;52.62
75363;DHT22;64122;51.988;5.892;2022-12-31T22:05:45;16.64;52.63
75363;DHT22;64122;51.988;5.892;2022-12-31T22:08:14;16.69;52.23
75363;DHT22;64122;51.988;5.892;2022-12-31T22:10:44;16.70;52.33
75363;DHT22;64122;51.988;5.892;2022-12-31T22:13:14;16.71;52.24
75363;DHT22;64122;51.988;5.892;2022-12-31T22:15:50;16.71;52.18
75363;DHT22;64122;51.988;5.892;2022-12-31T22:18:20;16.75;52.07
75363;DHT22;64122;51.988;5.892;2022-12-31T22:20:59;16.74;52.24
75363;DHT22;64122;51.988;5.892;2022-12-31T22:23:29;16.78;52.11
75363;DHT22;64122;51.988;5.892;2022-12-31T22:25:58;16.78;51.81
75363;DHT22;64122;51.988;5.892;2022-12-31T22:28:28;16.79;51.60
75363;DHT22;64122;51.988;5.892;2022-12-31T22:31:00;16.81;51.71
75363;DHT22;64122;51.988;5.892;2022-12-31T22:33:29;16.82;51.60
75363;DHT22;64122;51.988;5.892;2022-12-31T22:35:59;16.85;51.40
75363;DHT22;64122;51.988;5.892;2022-12-31T22:38:30;16.87;51.48
75363;DHT22;64122;51.988;5.892;2022-12-31T22:41:03;16.86;51.52
75363;DHT22;64122;51.988;5.892;2022-12-31T22:43:35;16.86;51.49
75363;DHT22;64122;51.988;5.892;2022-12-31T22:46:08;16.84;51.46
75363;DHT22;64122;51.988;5.892;2022-12-31T22:48:38;16.85;51.49
75363;DHT22;64122;51.988;5.892;2022-12-31T22:51:09;16.84;51.27
75363;DHT22;64122;51.988;5.892;2022-12-31T22:53:39;16.87;51.07
75363;DHT22;64122;51.988;5.892;2022-12-31T22:56:10;16.90;51.22
75363;DHT22;64122;51.988;5.892;2022-12-31T22:58:40;16.93;51.18
75363;DHT22;64122;51.988;5.892;2022-12-31T23:01:17;16.91;51.26
75363;DHT22;64122;51.988;5.892;2022-12-31T23:03:47;16.94;51.22
75363;DHT22;64122;51.988;5.892;2022-12-31T23:06:17;16.96;51.06
75363;DHT22;64122;51.988;5.892;2022-12-31T23:08:46;16.98;51.02
75363;DHT22;64122;51.988;5.892;2022-12-31T23:11:28;16.99;50.95
75363;DHT22;64122;51.988;5.892;2022-12-31T23:13:57;16.98;50.88
75363;DHT22;64122;51.988;5.892;2022-12-31T23:16:41;16.99;50.99
75363;DHT22;64122;51.988;5.892;2022-12-31T23:19:23;17.02;51.16
75363;DHT22;64122;51.988;5.892;2022-12-31T23:22:05;17.00;50.96
75363;DHT22;64122;51.988;5.892;2022-12-31T23:24:46;17.00;50.97
75363;DHT22;64122;51.988;5.892;2022-12-31T23:27:15;17.00;50.79
75363;DHT22;64122;51.988;5.892;2022-12-31T23:29:45;17.00;50.77
75363;DHT22;64122;51.988;5.892;2022-12-31T23:32:17;16.99;50.83
75363;DHT22;64122;51.988;5.892;2022-12-31T23:34:46;17.01;50.79
75363;DHT22;64122;51.988;5.892;2022-12-31T23:37:15;17.01;50.77
75363;DHT22;64122;51.988;5.892;2022-12-31T23:39:45;17.04;50.99
75363;DHT22;64122;51.988;5.892;2022-12-31T23:42:14;17.02;51.00
75363;DHT22;64122;51.988;5.892;2022-12-31T23:44:43;17.02;50.93
75363;DHT22;64122;51.988;5.892;2022-12-31T23:47:12;17.02;50.95
75363;DHT22;64122;51.988;5.892;2022-12-31T23:49:44;17.00;51.02
75363;DHT22;64122;51.988;5.892;2022-12-31T23:52:13;16.99;50.84
75363;DHT22;64122;51.988;5.892;2022-12-31T23:54:42;17.01;50.97
75363;DHT22;64122;51.988;5.892;2022-12-31T23:57:12;17.00;51.05
75363;DHT22;64122;51.988;5.892;2022-12-31T23:59:41;16.98;50.89
